Time;durP1;ratioP1;P1;durP2;ratioP2;P2;SDS_P1;SDS_P2;PMS_P1;PMS_P2;Temp;Humidity;BMP_temperature;BMP_pressure;BME280_temperature;BME280_humidity;BME280_pressure;Samples;Min_cycle;Max_cycle;Signal;HPM_P1;HPM_P2
2022/12/14 00:01:27;;;;;;;22.27;10.75;;;;;;;;;;5046508;28;20056;-77
2022/12/14 00:03:55;;;;;;;19.88;10.07;;;;;;;;;;5044636;28;20052;-78
2022/12/14 00:06:24;;;;;;;22.23;10.32;;;;;;;;;;5049252;28;20103;-77
2022/12/14 00:08:56;;;;;;;24.45;11.13;;;;;;;;;;5043274;28;20056;-77
2022/12/14 00:11:24;;;;;;;22.85;10.90;;;;;;;;;;5043015;28;20838;-78
2022/12/14 00:13:52;;;;;;;26.10;10.88;;;;;;;;;;5042611;28;20060;-77
2022/12/14 00:16:20;;;;;;;27.10;11.40;;;;;;;;;;5013546;28;20061;-77
2022/12/14 00:18:51;;;;;;;20.63;10.43;;;;;;;;;;5048080;28;20045;-77
2022/12/14 00:21:20;;;;;;;21.33;10.00;;;;;;;;;;5050141;28;20141;-77
2022/12/14 00:23:48;;;;;;;22.52;10.73;;;;;;;;;;5050028;28;20100;-77
2022/12/14 00:26:17;;;;;;;24.10;10.57;;;;;;;;;;5024581;28;20049;-77
2022/12/14 00:28:48;;;;;;;25.50;9.80;;;;;;;;;;5045675;28;20084;-77
2022/12/14 00:31:16;;;;;;;20.73;9.30;;;;;;;;;;5042714;28;20093;-77
2022/12/14 00:33:44;;;;;;;22.33;9.73;;;;;;;;;;5052572;28;20053;-77
2022/12/14 00:36:15;;;;;;;24.35;9.80;;;;;;;;;;5043367;28;20144;-77
2022/12/14 00:38:42;;;;;;;24.17;10.13;;;;;;;;;;5050079;28;20499;-77
2022/12/14 00:41:10;;;;;;;19.88;9.20;;;;;;;;;;5050575;28;20051;-78
2022/12/14 00:43:39;;;;;;;24.92;9.57;;;;;;;;;;5046667;28;20052;-77
2022/12/14 00:46:06;;;;;;;25.17;11.30;;;;;;;;;;5044939;28;20050;-77
2022/12/14 00:48:34;;;;;;;23.55;10.65;;;;;;;;;;5045572;28;20061;-77
2022/12/14 00:51:01;;;;;;;21.33;9.55;;;;;;;;;;5046747;28;20053;-77
2022/12/14 00:53:29;;;;;;;21.90;9.75;;;;;;;;;;5047440;28;20080;-77
2022/12/14 00:55:56;;;;;;;19.45;10.20;;;;;;;;;;5045778;28;20053;-77
2022/12/14 00:58:26;;;;;;;21.73;9.80;;;;;;;;;;5051107;28;20049;-77
2022/12/14 01:01:01;;;;;;;22.55;9.60;;;;;;;;;;5056171;28;20084;-77
2022/12/14 01:03:29;;;;;;;22.17;9.25;;;;;;;;;;5046112;28;20049;-77
2022/12/14 01:05:57;;;;;;;18.92;8.95;;;;;;;;;;5051953;28;20076;-77
2022/12/14 01:08:25;;;;;;;23.83;9.98;;;;;;;;;;5045387;28;20099;-76
2022/12/14 01:10:52;;;;;;;25.25;10.07;;;;;;;;;;5044328;28;20137;-77
2022/12/14 01:13:20;;;;;;;19.98;9.15;;;;;;;;;;5053079;28;21005;-77
2022/12/14 01:15:47;;;;;;;20.27;10.07;;;;;;;;;;5046961;28;20045;-77
2022/12/14 01:18:17;;;;;;;25.92;10.05;;;;;;;;;;5046535;28;20056;-77
2022/12/14 01:20:45;;;;;;;20.45;9.30;;;;;;;;;;5045723;28;20042;-77
2022/12/14 01:23:12;;;;;;;23.67;9.73;;;;;;;;;;5050398;28;20047;-77
2022/12/14 01:25:41;;;;;;;19.38;8.80;;;;;;;;;;5050453;28;20052;-78
2022/12/14 01:28:08;;;;;;;17.13;8.93;;;;;;;;;;5051259;28;20053;-77
2022/12/14 01:30:38;;;;;;;18.08;9.00;;;;;;;;;;5047141;28;20061;-77
2022/12/14 01:33:06;;;;;;;16.02;9.18;;;;;;;;;;5047931;28;20049;-77
2022/12/14 01:35:33;;;;;;;23.20;9.05;;;;;;;;;;5048524;28;20530;-77
2022/12/14 01:38:01;;;;;;;17.70;8.68;;;;;;;;;;5052428;28;20053;-77
2022/12/14 01:40:28;;;;;;;20.67;9.90;;;;;;;;;;5047873;28;20052;-77
2022/12/14 01:42:56;;;;;;;24.45;10.98;;;;;;;;;;5050469;28;20045;-78
2022/12/14 01:45:23;;;;;;;19.13;9.68;;;;;;;;;;5045919;28;20062;-77
2022/12/14 01:47:58;;;;;;;20.50;10.40;;;;;;;;;;5045833;28;20569;-77
2022/12/14 01:50:29;;;;;;;22.40;9.70;;;;;;;;;;5051905;28;20053;-77
2022/12/14 01:52:59;;;;;;;29.05;10.32;;;;;;;;;;5053276;28;20057;-77
2022/12/14 01:55:28;;;;;;;18.48;9.63;;;;;;;;;;5049073;28;20049;-77
2022/12/14 01:58:05;;;;;;;22.42;10.52;;;;;;;;;;5052653;28;20049;-77
2022/12/14 02:00:33;;;;;;;18.67;8.82;;;;;;;;;;5047777;28;20056;-77
2022/12/14 02:03:09;;;;;;;19.17;9.18;;;;;;;;;;5058392;28;20053;-77
2022/12/14 02:05:39;;;;;;;19.30;9.35;;;;;;;;;;5042200;28;20057;-77
2022/12/14 02:08:07;;;;;;;20.42;8.93;;;;;;;;;;5047969;28;20049;-77
2022/12/14 02:10:34;;;;;;;20.77;10.20;;;;;;;;;;5052170;28;20049;-76
2022/12/14 02:13:13;;;;;;;22.75;10.05;;;;;;;;;;5049430;28;20056;-77
2022/12/14 02:15:41;;;;;;;21.80;9.50;;;;;;;;;;5050174;28;20056;-77
2022/12/14 02:18:11;;;;;;;22.15;9.20;;;;;;;;;;5046739;28;20048;-77
2022/12/14 02:20:46;;;;;;;19.00;8.85;;;;;;;;;;5054210;28;20056;-79
2022/12/14 02:23:15;;;;;;;20.67;9.30;;;;;;;;;;5053836;28;20076;-77
2022/12/14 02:25:51;;;;;;;20.83;9.95;;;;;;;;;;5052111;28;20053;-77
2022/12/14 02:28:25;;;;;;;19.83;8.65;;;;;;;;;;5046691;28;20054;-77
2022/12/14 02:30:59;;;;;;;16.35;8.27;;;;;;;;;;5051272;28;20103;-77
2022/12/14 02:33:45;;;;;;;18.02;9.10;;;;;;;;;;5047699;28;20112;-77
2022/12/14 02:36:39;;;;;;;17.33;8.90;;;;;;;;;;5046907;28;20045;-77
2022/12/14 02:39:25;;;;;;;17.52;8.52;;;;;;;;;;5048693;28;20045;-77
2022/12/14 02:42:01;;;;;;;17.30;7.90;;;;;;;;;;5046896;28;20045;-77
2022/12/14 02:44:44;;;;;;;18.85;9.65;;;;;;;;;;5046485;28;20506;-77
2022/12/14 02:47:33;;;;;;;18.45;8.48;;;;;;;;;;5047606;28;20052;-77
2022/12/14 02:50:01;;;;;;;18.23;9.18;;;;;;;;;;5045335;28;20057;-77
2022/12/14 02:52:44;;;;;;;17.23;9.07;;;;;;;;;;5045097;28;20089;-76
2022/12/14 02:55:18;;;;;;;17.55;8.95;;;;;;;;;;5046551;28;20149;-77
2022/12/14 02:58:04;;;;;;;20.27;9.57;;;;;;;;;;5044655;28;20050;-77
2022/12/14 03:00:33;;;;;;;19.60;9.23;;;;;;;;;;5047300;28;20805;-77
2022/12/14 03:03:05;;;;;;;17.75;9.00;;;;;;;;;;5048554;28;20242;-77
2022/12/14 03:05:33;;;;;;;17.50;8.82;;;;;;;;;;5028556;28;20061;-77
2022/12/14 03:08:06;;;;;;;17.55;8.60;;;;;;;;;;5048051;28;20060;-77
2022/12/14 03:10:42;;;;;;;16.43;7.90;;;;;;;;;;5041548;28;20545;-78
2022/12/14 03:13:14;;;;;;;19.52;9.23;;;;;;;;;;5052340;28;20088;-77
2022/12/14 03:15:44;;;;;;;21.35;9.52;;;;;;;;;;5051923;28;20057;-77
2022/12/14 03:18:16;;;;;;;17.58;8.30;;;;;;;;;;5054093;28;20041;-77
2022/12/14 03:20:50;;;;;;;19.95;8.80;;;;;;;;;;5047061;28;20816;-78
2022/12/14 03:23:20;;;;;;;16.48;8.55;;;;;;;;;;5029318;28;20058;-77
2022/12/14 03:25:50;;;;;;;18.33;7.93;;;;;;;;;;5048092;28;20081;-77
2022/12/14 03:28:21;;;;;;;16.33;8.90;;;;;;;;;;5038909;28;20049;-77
2022/12/14 03:30:51;;;;;;;19.80;8.80;;;;;;;;;;5049167;28;20045;-77
2022/12/14 03:33:27;;;;;;;17.65;8.50;;;;;;;;;;5046746;28;20041;-77
2022/12/14 03:35:58;;;;;;;19.33;9.13;;;;;;;;;;5049693;28;20057;-77
2022/12/14 03:38:34;;;;;;;17.60;8.85;;;;;;;;;;5052154;28;20053;-77
2022/12/14 03:41:05;;;;;;;17.00;8.48;;;;;;;;;;5048906;28;20061;-77
2022/12/14 03:43:37;;;;;;;15.80;8.60;;;;;;;;;;5033496;28;20063;-77
2022/12/14 03:46:05;;;;;;;18.75;9.02;;;;;;;;;;5046127;28;20095;-77
2022/12/14 03:48:50;;;;;;;17.17;8.38;;;;;;;;;;5049757;28;20895;-77
2022/12/14 03:51:30;;;;;;;18.13;8.52;;;;;;;;;;5045029;28;20137;-77
2022/12/14 03:54:11;;;;;;;24.58;9.82;;;;;;;;;;5047628;28;20140;-77
2022/12/14 03:56:39;;;;;;;25.00;10.27;;;;;;;;;;5044442;28;20056;-76
2022/12/14 03:59:09;;;;;;;16.65;8.60;;;;;;;;;;5034144;28;20045;-77
2022/12/14 04:01:51;;;;;;;16.95;9.02;;;;;;;;;;5027847;28;20140;-77
2022/12/14 04:04:27;;;;;;;19.27;8.88;;;;;;;;;;5044902;28;20050;-77
2022/12/14 04:06:54;;;;;;;20.00;9.10;;;;;;;;;;5047811;28;20065;-77
2022/12/14 04:09:27;;;;;;;24.05;8.98;;;;;;;;;;5040803;28;20108;-77
2022/12/14 04:20:57;;;;;;;20.20;9.70;;;;;;;;;;5044755;28;20054;-77
2022/12/14 04:26:17;;;;;;;17.85;7.90;;;;;;;;;;5040617;28;20477;-77
2022/12/14 04:31:38;;;;;;;16.63;8.75;;;;;;;;;;5049839;28;20053;-77
2022/12/14 04:34:07;;;;;;;18.52;8.50;;;;;;;;;;5053091;28;20068;-76
2022/12/14 04:36:41;;;;;;;21.42;9.05;;;;;;;;;;5045038;28;20700;-77
2022/12/14 04:39:13;;;;;;;22.02;9.18;;;;;;;;;;5054823;28;20065;-77
2022/12/14 04:41:43;;;;;;;16.48;8.80;;;;;;;;;;5045862;28;20633;-76
2022/12/14 04:44:14;;;;;;;18.83;8.02;;;;;;;;;;5053790;28;20527;-77
2022/12/14 04:46:41;;;;;;;18.00;8.38;;;;;;;;;;5044488;28;20056;-77
2022/12/14 04:49:09;;;;;;;18.30;8.27;;;;;;;;;;5043295;28;20135;-78
2022/12/14 04:51:56;;;;;;;20.70;9.55;;;;;;;;;;5045120;28;20127;-76
2022/12/14 04:54:31;;;;;;;17.92;8.73;;;;;;;;;;5043732;28;20522;-76
2022/12/14 04:57:04;;;;;;;22.05;9.40;;;;;;;;;;5044193;28;20511;-77
2022/12/14 04:59:31;;;;;;;16.85;8.40;;;;;;;;;;5054676;28;20050;-76
2022/12/14 05:02:18;;;;;;;18.27;8.90;;;;;;;;;;5049471;28;20056;-77
2022/12/14 05:04:53;;;;;;;16.27;8.50;;;;;;;;;;5054443;28;20080;-77
2022/12/14 05:07:29;;;;;;;18.33;8.90;;;;;;;;;;5040083;28;20171;-76
2022/12/14 05:10:03;;;;;;;15.57;8.15;;;;;;;;;;5045183;28;20520;-76
2022/12/14 05:12:46;;;;;;;22.15;9.23;;;;;;;;;;5043466;28;20057;-76
2022/12/14 05:15:25;;;;;;;17.60;8.77;;;;;;;;;;5048854;28;20172;-76
2022/12/14 05:17:52;;;;;;;16.95;8.88;;;;;;;;;;5047986;28;20052;-77
2022/12/14 05:20:21;;;;;;;18.92;8.93;;;;;;;;;;5042748;28;20096;-76
2022/12/14 05:22:50;;;;;;;20.55;8.85;;;;;;;;;;5045527;28;20054;-77
2022/12/14 05:25:25;;;;;;;16.95;9.00;;;;;;;;;;5048620;28;20081;-76
2022/12/14 05:27:52;;;;;;;23.10;8.30;;;;;;;;;;5045266;28;20120;-76
2022/12/14 05:30:20;;;;;;;20.90;9.15;;;;;;;;;;5046831;28;20056;-76
2022/12/14 05:32:48;;;;;;;21.33;9.25;;;;;;;;;;5044662;28;20060;-76
2022/12/14 05:35:15;;;;;;;25.48;9.45;;;;;;;;;;5046490;28;20073;-77
2022/12/14 05:37:43;;;;;;;18.85;9.38;;;;;;;;;;5044349;28;20053;-77
2022/12/14 05:40:15;;;;;;;19.48;9.00;;;;;;;;;;5042787;28;20049;-76
2022/12/14 05:42:43;;;;;;;16.55;8.93;;;;;;;;;;5042864;28;20136;-76
2022/12/14 05:45:15;;;;;;;16.80;8.97;;;;;;;;;;5048774;28;20166;-76
2022/12/14 05:47:43;;;;;;;20.98;8.48;;;;;;;;;;5049546;28;20284;-76
2022/12/14 05:50:14;;;;;;;16.45;8.52;;;;;;;;;;5049802;28;20049;-77
2022/12/14 05:52:41;;;;;;;17.15;8.98;;;;;;;;;;5046386;28;20053;-77
2022/12/14 05:55:09;;;;;;;18.08;8.38;;;;;;;;;;5042111;28;20062;-76
2022/12/14 05:57:36;;;;;;;21.33;8.50;;;;;;;;;;5040261;28;20504;-77
2022/12/14 06:00:04;;;;;;;21.50;9.05;;;;;;;;;;5025300;28;20051;-76
2022/12/14 06:02:32;;;;;;;22.80;9.30;;;;;;;;;;5047665;28;20053;-76
2022/12/14 06:05:00;;;;;;;18.40;8.68;;;;;;;;;;5045048;28;20812;-76
2022/12/14 06:07:27;;;;;;;17.75;8.65;;;;;;;;;;5044508;28;20088;-77
2022/12/14 06:09:55;;;;;;;19.70;8.48;;;;;;;;;;5049531;28;20061;-77
2022/12/14 06:12:22;;;;;;;19.45;8.65;;;;;;;;;;5041084;28;21115;-77
2022/12/14 06:14:50;;;;;;;18.65;8.82;;;;;;;;;;5053308;28;20088;-76
2022/12/14 06:17:17;;;;;;;17.52;8.50;;;;;;;;;;5043589;28;20057;-77
2022/12/14 06:19:45;;;;;;;18.85;9.05;;;;;;;;;;5052412;28;20056;-76
2022/12/14 06:22:16;;;;;;;16.48;8.63;;;;;;;;;;5044976;28;20103;-76
2022/12/14 06:24:46;;;;;;;15.55;8.60;;;;;;;;;;5044941;28;20111;-77
2022/12/14 06:27:14;;;;;;;18.38;8.13;;;;;;;;;;5047639;28;20636;-76
2022/12/14 06:29:42;;;;;;;15.98;7.75;;;;;;;;;;5043191;28;20136;-76
2022/12/14 06:32:09;;;;;;;16.95;8.80;;;;;;;;;;5039241;28;20061;-76
2022/12/14 06:34:38;;;;;;;17.42;7.45;;;;;;;;;;5041467;28;20104;-76
2022/12/14 06:37:11;;;;;;;14.90;7.38;;;;;;;;;;5049659;28;20056;-76
2022/12/14 06:39:39;;;;;;;21.13;7.80;;;;;;;;;;5046769;28;20080;-78
2022/12/14 06:42:08;;;;;;;20.25;7.72;;;;;;;;;;5047026;28;20053;-76
2022/12/14 06:44:37;;;;;;;17.75;8.68;;;;;;;;;;5052116;28;20056;-76
2022/12/14 06:47:05;;;;;;;17.25;8.25;;;;;;;;;;5054884;28;20049;-76
2022/12/14 06:49:32;;;;;;;17.23;8.00;;;;;;;;;;5048784;28;20053;-76
2022/12/14 06:51:59;;;;;;;20.10;7.63;;;;;;;;;;5054298;28;20541;-77
2022/12/14 06:54:27;;;;;;;14.52;7.65;;;;;;;;;;5051319;28;20096;-76
2022/12/14 06:56:54;;;;;;;19.27;8.25;;;;;;;;;;5050455;28;20454;-76
2022/12/14 06:59:22;;;;;;;13.73;7.43;;;;;;;;;;5042326;28;20049;-77
2022/12/14 07:01:49;;;;;;;15.93;7.43;;;;;;;;;;5048495;28;20097;-76
2022/12/14 07:04:19;;;;;;;16.13;7.75;;;;;;;;;;5045644;28;20065;-76
2022/12/14 07:06:47;;;;;;;15.43;7.90;;;;;;;;;;5045844;28;20053;-76
2022/12/14 07:09:15;;;;;;;12.73;6.88;;;;;;;;;;5043767;28;20058;-77
2022/12/14 07:11:42;;;;;;;14.57;7.85;;;;;;;;;;5048140;28;20057;-77
2022/12/14 07:14:14;;;;;;;14.75;7.35;;;;;;;;;;5038560;28;20196;-76
2022/12/14 07:16:41;;;;;;;18.70;8.35;;;;;;;;;;5050049;28;20085;-76
2022/12/14 07:19:14;;;;;;;18.53;7.97;;;;;;;;;;5019776;28;20046;-76
2022/12/14 07:21:41;;;;;;;14.55;7.95;;;;;;;;;;5051189;28;20518;-76
2022/12/14 07:24:09;;;;;;;15.60;7.82;;;;;;;;;;5053080;28;20053;-76
2022/12/14 07:26:36;;;;;;;15.82;7.93;;;;;;;;;;5046932;28;20086;-76
2022/12/14 07:29:05;;;;;;;15.73;7.75;;;;;;;;;;5049063;28;20056;-76
2022/12/14 07:31:32;;;;;;;19.80;7.70;;;;;;;;;;5048272;28;20049;-76
2022/12/14 07:34:01;;;;;;;15.93;7.22;;;;;;;;;;5046856;28;20504;-76
2022/12/14 07:36:29;;;;;;;16.05;7.93;;;;;;;;;;5046595;28;20046;-76
2022/12/14 07:38:56;;;;;;;19.90;7.72;;;;;;;;;;5058108;28;20052;-76
2022/12/14 07:41:29;;;;;;;15.55;6.75;;;;;;;;;;5044562;28;20810;-77
2022/12/14 07:43:58;;;;;;;18.25;7.40;;;;;;;;;;5044964;28;20633;-77
2022/12/14 07:46:26;;;;;;;16.08;8.23;;;;;;;;;;5041358;28;20463;-76
2022/12/14 07:48:55;;;;;;;14.07;6.55;;;;;;;;;;5053259;28;20064;-76
2022/12/14 07:51:24;;;;;;;14.07;6.85;;;;;;;;;;5046966;28;20111;-77
2022/12/14 07:53:52;;;;;;;19.50;7.30;;;;;;;;;;5045986;28;20053;-77
2022/12/14 07:56:20;;;;;;;15.48;7.82;;;;;;;;;;5052182;28;20579;-77
2022/12/14 07:58:49;;;;;;;28.70;8.65;;;;;;;;;;5046779;28;20089;-77
2022/12/14 08:01:17;;;;;;;17.27;7.78;;;;;;;;;;5052592;28;20050;-76
2022/12/14 08:03:48;;;;;;;15.82;8.25;;;;;;;;;;5046983;28;20058;-77
2022/12/14 08:06:16;;;;;;;14.18;7.53;;;;;;;;;;5042862;28;20050;-77
2022/12/14 08:08:44;;;;;;;18.65;7.63;;;;;;;;;;5040319;28;20064;-77
2022/12/14 08:11:11;;;;;;;18.23;7.30;;;;;;;;;;5043819;28;20041;-77
2022/12/14 08:13:39;;;;;;;18.35;8.93;;;;;;;;;;5041572;28;20537;-77
2022/12/14 08:16:08;;;;;;;19.92;9.70;;;;;;;;;;5043786;28;20057;-76
2022/12/14 08:18:35;;;;;;;17.38;8.15;;;;;;;;;;5043617;28;20057;-77
2022/12/14 08:21:04;;;;;;;21.70;8.68;;;;;;;;;;5048005;28;20073;-77
2022/12/14 08:23:34;;;;;;;14.40;7.68;;;;;;;;;;5045450;28;20060;-77
2022/12/14 08:26:02;;;;;;;19.65;8.27;;;;;;;;;;5046472;28;20482;-77
2022/12/14 08:28:31;;;;;;;16.20;7.57;;;;;;;;;;5051279;28;20041;-76
2022/12/14 08:31:02;;;;;;;17.63;8.23;;;;;;;;;;5043047;28;20046;-76
2022/12/14 08:33:30;;;;;;;20.45;8.25;;;;;;;;;;5044179;28;20061;-76
2022/12/14 08:36:03;;;;;;;19.23;8.30;;;;;;;;;;5048703;28;20049;-77
2022/12/14 08:38:31;;;;;;;;;;;;;;;;;;5049779;28;20056;-76
2022/12/14 08:41:05;;;;;;;14.75;6.22;;;;;;;;;;5042756;28;46208;-76
2022/12/14 08:43:33;;;;;;;14.73;7.15;;;;;;;;;;5051306;28;20053;-76
2022/12/14 08:46:01;;;;;;;19.45;8.13;;;;;;;;;;5044641;28;20055;-77
2022/12/14 08:48:28;;;;;;;18.23;8.20;;;;;;;;;;5049310;28;20487;-76
2022/12/14 08:51:03;;;;;;;16.48;8.52;;;;;;;;;;5040347;28;20057;-76
2022/12/14 08:53:30;;;;;;;20.63;8.45;;;;;;;;;;5045094;28;20050;-76
2022/12/14 08:55:59;;;;;;;19.73;9.48;;;;;;;;;;5055085;28;20053;-76
2022/12/14 08:58:26;;;;;;;19.48;7.53;;;;;;;;;;5047296;28;20921;-76
2022/12/14 09:01:02;;;;;;;18.08;8.57;;;;;;;;;;5035524;28;20060;-76
2022/12/14 09:03:29;;;;;;;16.88;7.90;;;;;;;;;;4981735;28;20520;-76
2022/12/14 09:06:01;;;;;;;20.77;8.10;;;;;;;;;;4957408;28;21998;-76
2022/12/14 09:08:28;;;;;;;16.90;6.72;;;;;;;;;;5019550;28;20177;-77
2022/12/14 09:10:58;;;;;;;13.70;6.38;;;;;;;;;;5023452;28;20117;-76
2022/12/14 09:13:29;;;;;;;15.45;7.55;;;;;;;;;;5026098;28;20054;-77
2022/12/14 09:16:08;;;;;;;18.15;8.52;;;;;;;;;;5022485;28;20050;-77
2022/12/14 09:18:35;;;;;;;18.20;8.18;;;;;;;;;;5017860;28;20603;-76
2022/12/14 09:21:03;;;;;;;20.00;8.23;;;;;;;;;;5015144;28;20061;-77
2022/12/14 09:23:31;;;;;;;18.02;8.38;;;;;;;;;;5020544;28;20045;-76
2022/12/14 09:26:10;;;;;;;19.63;7.93;;;;;;;;;;5022024;28;20984;-77
2022/12/14 09:28:38;;;;;;;23.60;7.75;;;;;;;;;;5020803;28;20800;-76
2022/12/14 09:31:07;;;;;;;16.55;8.00;;;;;;;;;;5020658;28;20050;-77
2022/12/14 09:33:35;;;;;;;22.75;9.77;;;;;;;;;;5023507;28;20049;-77
2022/12/14 09:36:04;;;;;;;22.60;9.55;;;;;;;;;;5022371;28;20045;-77
2022/12/14 09:38:33;;;;;;;22.52;9.10;;;;;;;;;;5022172;28;20042;-77
2022/12/14 09:41:02;;;;;;;27.90;10.05;;;;;;;;;;5023135;28;20046;-77
2022/12/14 09:43:37;;;;;;;23.35;10.60;;;;;;;;;;5024271;28;20045;-77
2022/12/14 09:46:26;;;;;;;23.33;9.32;;;;;;;;;;5040059;28;20138;-77
2022/12/14 09:48:54;;;;;;;17.60;8.93;;;;;;;;;;5017350;28;20053;-76
2022/12/14 09:51:22;;;;;;;18.83;9.50;;;;;;;;;;5035206;28;21390;-77
2022/12/14 09:53:54;;;;;;;22.40;9.73;;;;;;;;;;5025549;28;20537;-77
2022/12/14 09:56:28;;;;;;;21.90;9.63;;;;;;;;;;5028009;28;20058;-77
2022/12/14 09:59:00;;;;;;;24.55;9.10;;;;;;;;;;5024679;28;20054;-77
2022/12/14 10:01:45;;;;;;;19.02;8.23;;;;;;;;;;5027567;28;20084;-77
2022/12/14 10:04:32;;;;;;;18.17;8.00;;;;;;;;;;5028256;28;20080;-76
2022/12/14 10:07:05;;;;;;;23.60;9.55;;;;;;;;;;5026460;28;20100;-76
2022/12/14 10:09:43;;;;;;;23.48;9.18;;;;;;;;;;5025803;28;20064;-77
2022/12/14 10:12:20;;;;;;;22.17;8.27;;;;;;;;;;5026251;28;20050;-77
2022/12/14 10:14:50;;;;;;;19.77;9.20;;;;;;;;;;5019106;28;20057;-77
2022/12/14 10:17:30;;;;;;;22.45;9.65;;;;;;;;;;5023064;28;20140;-77
2022/12/14 10:20:01;;;;;;;21.83;9.57;;;;;;;;;;5017024;28;20476;-78
2022/12/14 10:22:30;;;;;;;20.05;9.18;;;;;;;;;;5018262;28;20049;-78
2022/12/14 10:25:04;;;;;;;23.25;9.80;;;;;;;;;;5027667;28;20194;-77
2022/12/14 10:27:33;;;;;;;23.17;8.35;;;;;;;;;;5030131;28;20141;-78
2022/12/14 10:30:21;;;;;;;18.75;9.60;;;;;;;;;;5028236;28;20046;-78
2022/12/14 10:32:51;;;;;;;19.88;9.63;;;;;;;;;;5023338;28;20049;-78
2022/12/14 10:35:22;;;;;;;18.35;8.63;;;;;;;;;;5028016;28;20046;-78
2022/12/14 10:38:00;;;;;;;18.92;9.05;;;;;;;;;;5025043;28;20054;-78
2022/12/14 10:40:30;;;;;;;17.58;8.43;;;;;;;;;;5028308;28;20141;-78
2022/12/14 10:43:27;;;;;;;17.48;8.70;;;;;;;;;;5023000;28;20076;-78
2022/12/14 10:46:03;;;;;;;18.08;8.70;;;;;;;;;;5025881;28;20059;-78
2022/12/14 10:48:47;;;;;;;19.25;9.07;;;;;;;;;;5024587;28;20058;-78
2022/12/14 10:51:33;;;;;;;20.13;9.57;;;;;;;;;;5026789;28;20077;-78
2022/12/14 10:54:16;;;;;;;24.02;9.30;;;;;;;;;;5023552;28;20060;-78
2022/12/14 10:56:46;;;;;;;18.75;9.50;;;;;;;;;;5027083;28;20050;-78
2022/12/14 10:59:16;;;;;;;20.43;9.13;;;;;;;;;;5027591;28;20111;-78
2022/12/14 11:01:49;;;;;;;19.88;9.75;;;;;;;;;;5025549;28;20677;-78
2022/12/14 11:04:35;;;;;;;21.50;9.20;;;;;;;;;;5043093;28;20054;-79
2022/12/14 11:07:07;;;;;;;19.08;9.27;;;;;;;;;;5027936;28;20054;-79
2022/12/14 11:09:35;;;;;;;18.23;8.60;;;;;;;;;;5027453;28;20516;-78
2022/12/14 11:12:18;;;;;;;19.05;9.60;;;;;;;;;;5027263;28;20046;-79
2022/12/14 11:14:54;;;;;;;21.38;8.82;;;;;;;;;;5027291;28;20060;-78
2022/12/14 11:17:34;;;;;;;16.55;8.90;;;;;;;;;;5029142;28;20084;-79
2022/12/14 11:20:17;;;;;;;19.73;8.50;;;;;;;;;;5026569;28;20038;-78
2022/12/14 11:22:48;;;;;;;19.30;8.90;;;;;;;;;;5042877;28;20057;-78
2022/12/14 11:25:34;;;;;;;17.92;7.72;;;;;;;;;;5027894;28;20145;-79
2022/12/14 11:28:08;;;;;;;18.35;8.38;;;;;;;;;;5026631;28;20105;-79
2022/12/14 11:30:35;;;;;;;21.70;9.23;;;;;;;;;;5032122;28;20694;-78
2022/12/14 11:33:02;;;;;;;19.15;9.05;;;;;;;;;;5026955;28;20141;-78
2022/12/14 11:35:30;;;;;;;14.85;7.68;;;;;;;;;;5030323;28;20089;-78
2022/12/14 11:37:58;;;;;;;19.52;8.85;;;;;;;;;;5029347;28;20827;-79
2022/12/14 11:40:27;;;;;;;17.02;8.48;;;;;;;;;;5032536;28;20034;-78
2022/12/14 11:42:59;;;;;;;16.15;8.05;;;;;;;;;;5030630;28;20416;-78
2022/12/14 11:45:26;;;;;;;14.10;7.35;;;;;;;;;;5029107;28;20050;-78
2022/12/14 11:48:09;;;;;;;16.13;7.65;;;;;;;;;;5029936;28;20056;-78
2022/12/14 11:50:36;;;;;;;14.98;7.78;;;;;;;;;;5025287;28;20141;-79
2022/12/14 11:53:05;;;;;;;20.42;8.75;;;;;;;;;;5032282;28;20056;-78
2022/12/14 11:55:39;;;;;;;15.77;8.50;;;;;;;;;;5030073;28;20057;-79
2022/12/14 11:58:13;;;;;;;15.48;8.05;;;;;;;;;;5028791;28;20089;-79
2022/12/14 12:00:43;;;;;;;18.17;8.43;;;;;;;;;;5041534;28;20642;-78
2022/12/14 12:03:24;;;;;;;17.95;8.27;;;;;;;;;;5025608;28;20065;-78
2022/12/14 12:05:53;;;;;;;16.15;8.23;;;;;;;;;;5033931;28;20050;-78
2022/12/14 12:08:24;;;;;;;18.63;7.78;;;;;;;;;;5030250;28;20096;-79
2022/12/14 12:10:55;;;;;;;18.65;7.93;;;;;;;;;;5028331;28;20149;-79
2022/12/14 12:13:30;;;;;;;19.83;8.65;;;;;;;;;;5028338;28;20088;-78
2022/12/14 12:16:01;;;;;;;17.33;8.13;;;;;;;;;;5023969;28;20054;-78
2022/12/14 12:18:29;;;;;;;15.15;7.53;;;;;;;;;;5020598;28;20149;-78
2022/12/14 12:21:17;;;;;;;18.38;7.95;;;;;;;;;;5027375;28;20069;-78
2022/12/14 12:23:45;;;;;;;13.45;7.13;;;;;;;;;;5023298;28;20490;-78
2022/12/14 12:26:17;;;;;;;16.90;8.18;;;;;;;;;;5033528;28;20060;-80
2022/12/14 12:28:47;;;;;;;16.60;7.78;;;;;;;;;;5031905;28;20142;-78
2022/12/14 12:31:18;;;;;;;16.38;7.97;;;;;;;;;;5032083;28;20089;-79
2022/12/14 12:33:47;;;;;;;19.67;8.15;;;;;;;;;;5025961;28;20136;-78
2022/12/14 12:36:21;;;;;;;16.63;7.70;;;;;;;;;;5026552;28;20439;-78
2022/12/14 12:38:59;;;;;;;16.73;7.43;;;;;;;;;;5028095;28;20058;-79
2022/12/14 12:41:33;;;;;;;18.52;7.70;;;;;;;;;;5030593;28;20105;-79
2022/12/14 12:44:16;;;;;;;15.52;7.88;;;;;;;;;;5029388;28;20062;-79
2022/12/14 12:46:53;;;;;;;17.70;8.90;;;;;;;;;;5033849;28;20050;-79
2022/12/14 12:49:41;;;;;;;15.75;7.57;;;;;;;;;;5025293;28;20061;-78
2022/12/14 12:52:18;;;;;;;16.80;8.40;;;;;;;;;;5031257;28;20120;-78
2022/12/14 12:54:53;;;;;;;15.60;8.23;;;;;;;;;;5028266;28;20050;-79
2022/12/14 12:57:21;;;;;;;21.10;8.68;;;;;;;;;;5030540;28;20057;-78
2022/12/14 12:59:54;;;;;;;17.38;8.43;;;;;;;;;;5027642;28;20081;-79
2022/12/14 13:02:35;;;;;;;18.13;8.45;;;;;;;;;;5029942;28;20095;-79
2022/12/14 13:05:07;;;;;;;15.73;7.50;;;;;;;;;;5027228;28;20135;-81
2022/12/14 13:07:57;;;;;;;22.08;7.50;;;;;;;;;;5030801;28;20073;-78
2022/12/14 13:10:31;;;;;;;14.63;7.63;;;;;;;;;;5019485;28;20054;-78
2022/12/14 13:13:19;;;;;;;13.40;6.63;;;;;;;;;;5024422;28;20050;-78
2022/12/14 13:15:54;;;;;;;10.35;5.07;;;;;;;;;;5024838;28;20096;-78
2022/12/14 13:18:32;;;;;;;19.25;5.38;;;;;;;;;;5032634;28;20057;-78
2022/12/14 13:21:34;;;;;;;11.23;5.28;;;;;;;;;;5040019;28;20053;-78
2022/12/14 13:24:14;;;;;;;13.65;5.90;;;;;;;;;;5024946;28;20986;-79
2022/12/14 13:26:54;;;;;;;11.82;4.97;;;;;;;;;;5024088;28;20042;-78
2022/12/14 13:29:31;;;;;;;10.38;5.60;;;;;;;;;;5030579;28;20061;-78
2022/12/14 13:32:01;;;;;;;;;;;;;;;;;;5031921;28;20488;-79
2022/12/14 13:34:31;;;;;;;10.88;5.05;;;;;;;;;;5025734;28;43762;-79
2022/12/14 13:37:04;;;;;;;13.07;5.68;;;;;;;;;;5025267;28;20054;-78
2022/12/14 13:39:45;;;;;;;10.63;5.55;;;;;;;;;;5029105;28;20050;-78
2022/12/14 13:42:17;;;;;;;14.85;6.07;;;;;;;;;;5027925;28;20057;-79
2022/12/14 13:44:44;;;;;;;12.30;6.25;;;;;;;;;;5023822;28;20045;-78
2022/12/14 13:47:19;;;;;;;13.57;6.38;;;;;;;;;;5031513;28;20100;-78
2022/12/14 13:50:01;;;;;;;12.27;6.00;;;;;;;;;;5039987;28;20117;-79
2022/12/14 13:52:54;;;;;;;11.23;6.00;;;;;;;;;;5039368;28;20094;-78
2022/12/14 13:55:33;;;;;;;13.55;6.18;;;;;;;;;;5028588;28;20100;-79
2022/12/14 13:58:28;;;;;;;13.52;6.50;;;;;;;;;;5026063;28;20050;-78
2022/12/14 14:00:56;;;;;;;;;;;;;;;;;;5012299;28;20058;-79
2022/12/14 14:03:36;;;;;;;13.82;5.97;;;;;;;;;;5025210;28;44558;-78
2022/12/14 14:06:06;;;;;;;13.18;6.00;;;;;;;;;;5027574;28;20120;-78
2022/12/14 14:08:37;;;;;;;16.20;6.68;;;;;;;;;;5031342;28;20058;-79
2022/12/14 14:11:21;;;;;;;15.20;7.03;;;;;;;;;;5026214;28;20548;-79
2022/12/14 14:14:17;;;;;;;15.52;6.38;;;;;;;;;;5028058;28;20049;-78
2022/12/14 14:16:48;;;;;;;22.75;7.15;;;;;;;;;;5029173;28;20088;-79
2022/12/14 14:19:20;;;;;;;17.67;7.38;;;;;;;;;;5030002;28;20058;-78
2022/12/14 14:22:19;;;;;;;14.52;7.15;;;;;;;;;;5028816;28;20058;-78
2022/12/14 14:24:54;;;;;;;13.85;6.97;;;;;;;;;;5020328;28;20108;-79
2022/12/14 14:27:23;;;;;;;17.02;7.32;;;;;;;;;;5045544;28;20077;-78
2022/12/14 14:29:57;;;;;;;17.67;8.07;;;;;;;;;;5041632;28;20053;-79
2022/12/14 14:32:33;;;;;;;14.95;7.32;;;;;;;;;;5028966;28;20050;-79
2022/12/14 14:35:02;;;;;;;18.15;8.07;;;;;;;;;;5027611;28;20077;-80
2022/12/14 14:37:31;;;;;;;16.50;7.38;;;;;;;;;;5030723;28;20101;-78
2022/12/14 14:40:05;;;;;;;14.30;6.57;;;;;;;;;;5024602;28;20094;-79
2022/12/14 14:42:56;;;;;;;15.88;8.02;;;;;;;;;;5045000;28;20080;-78
2022/12/14 14:45:33;;;;;;;17.88;7.53;;;;;;;;;;5029491;28;20046;-79
2022/12/14 14:48:08;;;;;;;16.60;7.95;;;;;;;;;;5026466;28;20049;-79
2022/12/14 14:50:36;;;;;;;16.80;7.95;;;;;;;;;;5026568;28;20061;-80
2022/12/14 14:53:22;;;;;;;15.68;7.68;;;;;;;;;;5028948;28;21096;-80
2022/12/14 14:55:57;;;;;;;16.83;8.23;;;;;;;;;;5028376;28;20096;-78
2022/12/14 14:58:34;;;;;;;16.02;7.57;;;;;;;;;;5029885;28;20531;-78
2022/12/14 15:01:23;;;;;;;16.10;7.75;;;;;;;;;;5031353;28;20099;-78
2022/12/14 15:04:02;;;;;;;20.98;8.80;;;;;;;;;;5026904;28;20054;-78
2022/12/14 15:06:32;;;;;;;20.40;8.55;;;;;;;;;;5040962;28;20124;-78
2022/12/14 15:09:04;;;;;;;23.80;8.25;;;;;;;;;;5031504;28;20054;-78
2022/12/14 15:11:52;;;;;;;19.02;8.30;;;;;;;;;;5028558;28;20065;-78
2022/12/14 15:14:28;;;;;;;20.48;8.55;;;;;;;;;;5027593;28;20054;-78
2022/12/14 15:16:56;;;;;;;16.98;8.20;;;;;;;;;;5026954;28;20158;-77